Lindsey Graham — WDG9563 — position and weather

sailwx.info

Track history (hours):
 
Tides and Currents Weather Stations Pressure Air Temp Water Temp Dewpoint Dewpoint Depression Visibility Wind Speed Wind Dir Waves Ship Positions

Lindsey Graham

Owner: Blessey Enterprises, Inc., Harahan, LA. More information available from US FCC via Universal Licensing System and Coast Guard Vessel Documentation Center.

Last reported at 2017-Oct-19 09:07 UTC. Time now 2017-Oct-19 16:12 UTC.
Position N 29°47' W 095°06'.

Length 26 m.

Type: Towing. MMSI: 367589050.

Date/timePositionNaut miles runAvg speedWind from/ knotsBaromVisibWave heightAir tempDewpointWater temp
2017-Oct-19 09:07N 29°47' W 095°06'0 0.0
2017-Oct-19 07:07N 29°47' W 095°06'0 0.0
2017-Oct-19 06:48N 29°47' W 095°06'0 0.0
2017-Oct-19 03:51N 29°47' W 095°06'0 0.0
2017-Oct-18 12:33N 29°47' W 095°06'0 0.0
2017-Oct-18 12:28N 29°47' W 095°06'0 0.0
2017-Oct-18 11:50N 29°47' W 095°06'0 0.0
2017-Oct-18 11:30N 29°47' W 095°06'0 0.0
2017-Oct-18 10:56N 29°47' W 095°06'0 0.0
2017-Oct-18 09:21N 29°47' W 095°06'0 0.0
2017-Oct-18 09:00N 29°47' W 095°06'0 0.0
2017-Oct-18 06:47N 29°47' W 095°06'0 0.0
2017-Oct-18 06:25N 29°47' W 095°06'0 0.0
2017-Oct-18 05:57N 29°47' W 095°06'0 0.0
2017-Oct-18 05:29N 29°47' W 095°06'0 0.0
2017-Oct-18 04:59N 29°47' W 095°06'0 0.0
2017-Oct-18 04:30N 29°47' W 095°06'0 0.0
2017-Oct-18 03:58N 29°47' W 095°06'0 0.0
2017-Oct-17 10:07N 29°47' W 095°06'2 0.1
2017-Oct-16 19:28N 29°46' W 095°04'3 5.1
2017-Oct-16 18:59N 29°44' W 095°02'1 1.5
2017-Oct-16 18:23N 29°44' W 095°02'2 5.6
2017-Oct-16 17:59N 29°42' W 094°60'3 6.9
2017-Oct-16 17:30N 29°39' W 094°58'4 7.6
2017-Oct-16 17:00N 29°36' W 094°56'71 4.9
2017-Oct-16 02:19N 30°04' W 093°41'2 5.4
2017-Oct-16 01:58N 30°04' W 093°39'2 5.3
2017-Oct-16 01:30N 30°04' W 093°36'3 5.0
2017-Oct-16 01:00N 30°04' W 093°33'2 5.0
2017-Oct-16 00:30N 30°04' W 093°30'2 5.0
2017-Oct-16 00:00N 30°04' W 093°27'3 5.1
2017-Oct-15 23:30N 30°04' W 093°24'2 4.8
2017-Oct-15 23:00N 30°04' W 093°21'2 3.4
2017-Oct-15 22:30N 30°05' W 093°20'3 5.5
2017-Oct-15 22:00N 30°08' W 093°20'3 6.4
2017-Oct-15 21:30N 30°11' W 093°19'3 7.0
2017-Oct-15 21:00N 30°13' W 093°16'1 1.6
2017-Oct-15 20:30N 30°13' W 093°15'0 0.9
2017-Oct-15 20:00N 30°14' W 093°15'0 0.0
2017-Oct-15 19:30N 30°14' W 093°15'0 0.0
2017-Oct-15 19:00N 30°14' W 093°15'0 0.0
2017-Oct-15 18:30N 30°14' W 093°15'0 0.0
2017-Oct-15 18:00N 30°14' W 093°15'0 0.0
2017-Oct-15 17:30N 30°14' W 093°15'0 0.0
2017-Oct-15 17:00N 30°14' W 093°15'0 0.0
2017-Oct-15 16:30N 30°14' W 093°15'0 0.0
2017-Oct-15 16:00N 30°14' W 093°15'0 0.0
2017-Oct-15 15:30N 30°14' W 093°15'0 0.0
2017-Oct-15 15:00N 30°14' W 093°15'0 0.0
2017-Oct-15 14:00N 30°14' W 093°15'0 0.0
2017-Oct-15 13:30N 30°14' W 093°15'0 0.0
2017-Oct-15 13:00N 30°14' W 093°15'0 0.0
2017-Oct-15 12:30N 30°14' W 093°15'0 0.0
2017-Oct-15 12:00N 30°14' W 093°15'0 0.0
2017-Oct-15 11:30N 30°14' W 093°15'0 0.0
2017-Oct-15 11:00N 30°14' W 093°15'0 0.0
2017-Oct-15 10:30N 30°14' W 093°15'0 0.0
2017-Oct-15 10:00N 30°14' W 093°15'0 0.0
2017-Oct-15 09:30N 30°14' W 093°15'0 0.0
2017-Oct-15 09:00N 30°14' W 093°15'0 0.0
2017-Oct-15 08:30N 30°14' W 093°15'0 0.0
2017-Oct-15 08:00N 30°14' W 093°15'0 0.0
2017-Oct-15 07:30N 30°14' W 093°15'0 0.0
2017-Oct-15 07:00N 30°14' W 093°15'0 0.0
2017-Oct-15 06:30N 30°14' W 093°15'0 0.0
2017-Oct-15 06:00N 30°14' W 093°15'0 0.0
2017-Oct-15 05:30N 30°14' W 093°15'0 0.0
2017-Oct-15 05:00N 30°14' W 093°15'0 0.0
2017-Oct-15 04:30N 30°14' W 093°15'0 0.0
2017-Oct-15 04:00N 30°14' W 093°15'0 0.0
2017-Oct-15 03:30N 30°14' W 093°15'0 0.0
2017-Oct-15 03:00N 30°14' W 093°15'0 0.0
2017-Oct-15 02:30N 30°14' W 093°15'0 0.0
2017-Oct-15 02:00N 30°14' W 093°15'0 0.0
2017-Oct-15 01:30N 30°14' W 093°15'0 0.0
2017-Oct-15 01:00N 30°14' W 093°15'0 0.0
2017-Oct-15 00:30N 30°14' W 093°15'0 0.0
2017-Oct-15 00:00N 30°14' W 093°15'0 0.0
2017-Oct-14 23:30N 30°14' W 093°15'0 0.0
2017-Oct-14 23:00N 30°14' W 093°15'0 0.0
2017-Oct-14 22:30N 30°14' W 093°15'0 0.0
2017-Oct-14 22:00N 30°14' W 093°15'0 0.0
2017-Oct-14 21:30N 30°14' W 093°15'0 0.0
2017-Oct-14 21:00N 30°14' W 093°15'0 0.0
2017-Oct-14 20:30N 30°14' W 093°15'0 0.0
2017-Oct-14 20:00N 30°14' W 093°15'0 0.0
2017-Oct-14 19:30N 30°14' W 093°15'0 0.0
2017-Oct-14 19:00N 30°14' W 093°15'1 1.2
2017-Oct-14 18:30N 30°13' W 093°16'0 0.6
2017-Oct-14 18:01N 30°13' W 093°16'3 6.4
2017-Oct-14 17:30N 30°11' W 093°19'3 6.2
2017-Oct-14 17:00N 30°08' W 093°20'5 6.1
2017-Oct-14 16:16N 30°04' W 093°21'1 5.6
2017-Oct-14 16:00N 30°04' W 093°23'3 6.1
2017-Oct-14 15:30N 30°04' W 093°26'3 5.9
2017-Oct-14 15:00N 30°04' W 093°30'3 5.9
2017-Oct-14 14:30N 30°04' W 093°33'3 5.9
2017-Oct-14 14:00N 30°04' W 093°36'2 4.5
2017-Oct-14 13:30N 30°04' W 093°39'1 3.0
2017-Oct-14 13:00N 30°03' W 093°41'1 2.3
2017-Oct-14 12:30N 30°03' W 093°42'0 0.0
2017-Oct-14 11:56N 30°03' W 093°42'2 1.4
2017-Oct-14 10:15N 30°02' W 093°44'2 7.6
2017-Oct-14 09:57N 30°00' W 093°46'5 7.5
2017-Oct-14 09:16N 29°58' W 093°51'0 0.1
2017-Oct-14 07:34N 29°58' W 093°51'0 0.0
2017-Oct-14 07:29N 29°58' W 093°51'4 2.2
2017-Oct-14 05:50N 29°55' W 093°53'57 4.5
2017-Oct-13 17:20N 29°31' W 094°53'3 8.3
2017-Oct-13 17:00N 29°33' W 094°55'4 8.0
2017-Oct-13 16:30N 29°36' W 094°57'4 8.2
2017-Oct-13 16:00N 29°40' W 094°59'4 7.0
2017-Oct-13 15:26N 29°44' W 095°01'3 7.1
2017-Oct-13 14:59N 29°46' W 095°04'2 3.7
2017-Oct-13 14:29N 29°47' W 095°04'1 0.2
2017-Oct-13 08:36N 29°47' W 095°06'0 0.1
2017-Oct-13 08:30N 29°47' W 095°06'1 0.8
2017-Oct-13 07:04N 29°47' W 095°04'2 4.3
2017-Oct-13 06:42N 29°46' W 095°05'2 7.1
2017-Oct-13 06:29N 29°45' W 095°04'3 6.9
2017-Oct-13 06:00N 29°42' W 095°01'4 7.7
2017-Oct-13 05:30N 29°39' W 094°58'4 8.4
2017-Oct-13 05:00N 29°35' W 094°56'5 8.6
2017-Oct-13 04:26N 29°31' W 094°53'  
Track history (hours):
 
Tides and Currents Weather Stations Pressure Air Temp Water Temp Dewpoint Dewpoint Depression Visibility Wind Speed Wind Dir Waves Ship Positions

Lindsey Graham

Owner: Blessey Enterprises, Inc., Harahan, LA. More information available from US FCC via Universal Licensing System and Coast Guard Vessel Documentation Center.

Last reported at 2017-Oct-19 09:07 UTC. Time now 2017-Oct-19 16:12 UTC.
Position N 29°47' W 095°06'.

Length 26 m.

Type: Towing. MMSI: 367589050.

Date/timePositionNaut miles runAvg speedWind from/ knotsBaromVisibWave heightAir tempDewpointWater temp
2017-Oct-19 09:07N 29°47' W 095°06'0 0.0
2017-Oct-19 07:07N 29°47' W 095°06'0 0.0
2017-Oct-19 06:48N 29°47' W 095°06'0 0.0
2017-Oct-19 03:51N 29°47' W 095°06'0 0.0
2017-Oct-18 12:33N 29°47' W 095°06'0 0.0
2017-Oct-18 12:28N 29°47' W 095°06'0 0.0
2017-Oct-18 11:50N 29°47' W 095°06'0 0.0
2017-Oct-18 11:30N 29°47' W 095°06'0 0.0
2017-Oct-18 10:56N 29°47' W 095°06'0 0.0
2017-Oct-18 09:21N 29°47' W 095°06'0 0.0
2017-Oct-18 09:00N 29°47' W 095°06'0 0.0
2017-Oct-18 06:47N 29°47' W 095°06'0 0.0
2017-Oct-18 06:25N 29°47' W 095°06'0 0.0
2017-Oct-18 05:57N 29°47' W 095°06'0 0.0
2017-Oct-18 05:29N 29°47' W 095°06'0 0.0
2017-Oct-18 04:59N 29°47' W 095°06'0 0.0
2017-Oct-18 04:30N 29°47' W 095°06'0 0.0
2017-Oct-18 03:58N 29°47' W 095°06'0 0.0
2017-Oct-17 10:07N 29°47' W 095°06'2 0.1
2017-Oct-16 19:28N 29°46' W 095°04'3 5.1
2017-Oct-16 18:59N 29°44' W 095°02'1 1.5
2017-Oct-16 18:23N 29°44' W 095°02'2 5.6
2017-Oct-16 17:59N 29°42' W 094°60'3 6.9
2017-Oct-16 17:30N 29°39' W 094°58'4 7.6
2017-Oct-16 17:00N 29°36' W 094°56'71 4.9
2017-Oct-16 02:19N 30°04' W 093°41'2 5.4
2017-Oct-16 01:58N 30°04' W 093°39'2 5.3
2017-Oct-16 01:30N 30°04' W 093°36'3 5.0
2017-Oct-16 01:00N 30°04' W 093°33'2 5.0
2017-Oct-16 00:30N 30°04' W 093°30'2 5.0
2017-Oct-16 00:00N 30°04' W 093°27'3 5.1
2017-Oct-15 23:30N 30°04' W 093°24'2 4.8
2017-Oct-15 23:00N 30°04' W 093°21'2 3.4
2017-Oct-15 22:30N 30°05' W 093°20'3 5.5
2017-Oct-15 22:00N 30°08' W 093°20'3 6.4
2017-Oct-15 21:30N 30°11' W 093°19'3 7.0
2017-Oct-15 21:00N 30°13' W 093°16'1 1.6
2017-Oct-15 20:30N 30°13' W 093°15'0 0.9
2017-Oct-15 20:00N 30°14' W 093°15'0 0.0
2017-Oct-15 19:30N 30°14' W 093°15'0 0.0
2017-Oct-15 19:00N 30°14' W 093°15'0 0.0
2017-Oct-15 18:30N 30°14' W 093°15'0 0.0
2017-Oct-15 18:00N 30°14' W 093°15'0 0.0
2017-Oct-15 17:30N 30°14' W 093°15'0 0.0
2017-Oct-15 17:00N 30°14' W 093°15'0 0.0
2017-Oct-15 16:30N 30°14' W 093°15'0 0.0
2017-Oct-15 16:00N 30°14' W 093°15'0 0.0
2017-Oct-15 15:30N 30°14' W 093°15'0 0.0
2017-Oct-15 15:00N 30°14' W 093°15'0 0.0
2017-Oct-15 14:00N 30°14' W 093°15'0 0.0
2017-Oct-15 13:30N 30°14' W 093°15'0 0.0
2017-Oct-15 13:00N 30°14' W 093°15'0 0.0
2017-Oct-15 12:30N 30°14' W 093°15'0 0.0
2017-Oct-15 12:00N 30°14' W 093°15'0 0.0
2017-Oct-15 11:30N 30°14' W 093°15'0 0.0
2017-Oct-15 11:00N 30°14' W 093°15'0 0.0
2017-Oct-15 10:30N 30°14' W 093°15'0 0.0
2017-Oct-15 10:00N 30°14' W 093°15'0 0.0
2017-Oct-15 09:30N 30°14' W 093°15'0 0.0
2017-Oct-15 09:00N 30°14' W 093°15'0 0.0
2017-Oct-15 08:30N 30°14' W 093°15'0 0.0
2017-Oct-15 08:00N 30°14' W 093°15'0 0.0
2017-Oct-15 07:30N 30°14' W 093°15'0 0.0
2017-Oct-15 07:00N 30°14' W 093°15'0 0.0
2017-Oct-15 06:30N 30°14' W 093°15'0 0.0
2017-Oct-15 06:00N 30°14' W 093°15'0 0.0
2017-Oct-15 05:30N 30°14' W 093°15'0 0.0
2017-Oct-15 05:00N 30°14' W 093°15'0 0.0
2017-Oct-15 04:30N 30°14' W 093°15'0 0.0
2017-Oct-15 04:00N 30°14' W 093°15'0 0.0
2017-Oct-15 03:30N 30°14' W 093°15'0 0.0
2017-Oct-15 03:00N 30°14' W 093°15'0 0.0
2017-Oct-15 02:30N 30°14' W 093°15'0 0.0
2017-Oct-15 02:00N 30°14' W 093°15'0 0.0
2017-Oct-15 01:30N 30°14' W 093°15'0 0.0
2017-Oct-15 01:00N 30°14' W 093°15'0 0.0
2017-Oct-15 00:30N 30°14' W 093°15'0 0.0
2017-Oct-15 00:00N 30°14' W 093°15'0 0.0
2017-Oct-14 23:30N 30°14' W 093°15'0 0.0
2017-Oct-14 23:00N 30°14' W 093°15'0 0.0
2017-Oct-14 22:30N 30°14' W 093°15'0 0.0
2017-Oct-14 22:00N 30°14' W 093°15'0 0.0
2017-Oct-14 21:30N 30°14' W 093°15'0 0.0
2017-Oct-14 21:00N 30°14' W 093°15'0 0.0
2017-Oct-14 20:30N 30°14' W 093°15'0 0.0
2017-Oct-14 20:00N 30°14' W 093°15'0 0.0
2017-Oct-14 19:30N 30°14' W 093°15'0 0.0
2017-Oct-14 19:00N 30°14' W 093°15'1 1.2
2017-Oct-14 18:30N 30°13' W 093°16'0 0.6
2017-Oct-14 18:01N 30°13' W 093°16'3 6.4
2017-Oct-14 17:30N 30°11' W 093°19'3 6.2
2017-Oct-14 17:00N 30°08' W 093°20'5 6.1
2017-Oct-14 16:16N 30°04' W 093°21'1 5.6
2017-Oct-14 16:00N 30°04' W 093°23'3 6.1
2017-Oct-14 15:30N 30°04' W 093°26'3 5.9
2017-Oct-14 15:00N 30°04' W 093°30'3 5.9
2017-Oct-14 14:30N 30°04' W 093°33'3 5.9
2017-Oct-14 14:00N 30°04' W 093°36'2 4.5
2017-Oct-14 13:30N 30°04' W 093°39'1 3.0
2017-Oct-14 13:00N 30°03' W 093°41'1 2.3
2017-Oct-14 12:30N 30°03' W 093°42'0 0.0
2017-Oct-14 11:56N 30°03' W 093°42'2 1.4
2017-Oct-14 10:15N 30°02' W 093°44'2 7.6
2017-Oct-14 09:57N 30°00' W 093°46'5 7.5
2017-Oct-14 09:16N 29°58' W 093°51'0 0.1
2017-Oct-14 07:34N 29°58' W 093°51'0 0.0
2017-Oct-14 07:29N 29°58' W 093°51'4 2.2
2017-Oct-14 05:50N 29°55' W 093°53'57 4.5
2017-Oct-13 17:20N 29°31' W 094°53'3 8.3
2017-Oct-13 17:00N 29°33' W 094°55'4 8.0
2017-Oct-13 16:30N 29°36' W 094°57'4 8.2
2017-Oct-13 16:00N 29°40' W 094°59'4 7.0
2017-Oct-13 15:26N 29°44' W 095°01'3 7.1
2017-Oct-13 14:59N 29°46' W 095°04'2 3.7
2017-Oct-13 14:29N 29°47' W 095°04'1 0.2
2017-Oct-13 08:36N 29°47' W 095°06'0 0.1
2017-Oct-13 08:30N 29°47' W 095°06'1 0.8
2017-Oct-13 07:04N 29°47' W 095°04'2 4.3
2017-Oct-13 06:42N 29°46' W 095°05'2 7.1
2017-Oct-13 06:29N 29°45' W 095°04'3 6.9
2017-Oct-13 06:00N 29°42' W 095°01'4 7.7
2017-Oct-13 05:30N 29°39' W 094°58'4 8.4
2017-Oct-13 05:00N 29°35' W 094°56'5 8.6
2017-Oct-13 04:26N 29°31' W 094°53'  

Dump ship's entire track history